Time;durP1;ratioP1;P1;durP2;ratioP2;P2;SDS_P1;SDS_P2;PMS_P1;PMS_P2;Temp;Humidity;BMP_temperature;BMP_pressure;BME280_temperature;BME280_humidity;BME280_pressure;Samples;Min_cycle;Max_cycle;Signal;HPM_P1;HPM_P2
2023/03/31 00:01:32;;;;;;;2.20;1.70;;;15.80;41.30;;;;;;5034072;28;20170;-52
2023/03/31 00:04:03;;;;;;;2.70;1.15;;;15.80;41.30;;;;;;5033929;28;20170;-52
2023/03/31 00:06:36;;;;;;;4.35;1.63;;;15.90;41.30;;;;;;5033747;28;20225;-51
2023/03/31 00:09:07;;;;;;;2.10;1.75;;;15.90;41.50;;;;;;5033899;28;20224;-51
2023/03/31 00:11:33;;;;;;;4.07;1.63;;;15.90;41.10;;;;;;5033830;28;20256;-52
2023/03/31 00:13:58;;;;;;;6.53;1.63;;;16.00;40.90;;;;;;5033044;28;20309;-51
2023/03/31 00:16:25;;;;;;;3.13;1.63;;;16.00;40.80;;;;;;5033746;28;20201;-51
2023/03/31 00:18:51;;;;;;;3.90;1.40;;;16.00;40.90;;;;;;5033571;28;20253;-52
2023/03/31 00:21:32;;;;;;;3.83;2.00;;;16.00;41.00;;;;;;5033927;28;20325;-51
2023/03/31 00:24:08;;;;;;;2.42;1.15;;;16.00;40.90;;;;;;5033406;28;20810;-52
2023/03/31 00:26:34;;;;;;;5.10;2.95;;;16.00;41.10;;;;;;5033935;28;20169;-52
2023/03/31 00:29:01;;;;;;;4.22;1.90;;;15.90;41.10;;;;;;5039795;22;20237;-52
2023/03/31 00:31:27;;;;;;;4.35;2.05;;;15.90;41.20;;;;;;5033342;28;20702;-52
2023/03/31 00:33:54;;;;;;;3.22;1.85;;;15.90;41.30;;;;;;5032909;28;20213;-51
2023/03/31 00:36:25;;;;;;;3.50;1.77;;;15.90;41.30;;;;;;5033681;28;20177;-51
2023/03/31 00:38:57;;;;;;;6.20;1.70;;;15.90;41.30;;;;;;5033238;28;20347;-51
2023/03/31 00:41:23;;;;;;;6.05;2.10;;;15.90;41.30;;;;;;5033530;28;20174;-52
2023/03/31 00:44:07;;;;;;;4.50;1.73;;;15.90;41.00;;;;;;5033117;28;20181;-52
2023/03/31 00:46:54;;;;;;;3.35;1.63;;;16.00;41.00;;;;;;5033251;28;20412;-52
2023/03/31 00:49:28;;;;;;;7.10;2.45;;;16.00;41.00;;;;;;5033409;28;20201;-51
2023/03/31 00:52:01;;;;;;;2.95;1.90;;;15.90;41.10;;;;;;5033231;28;20509;-52
2023/03/31 00:54:27;;;;;;;3.72;2.03;;;16.00;41.00;;;;;;5032971;28;20311;-52
2023/03/31 00:56:57;;;;;;;4.13;1.80;;;16.00;41.00;;;;;;5033082;28;20174;-52
2023/03/31 00:59:26;;;;;;;3.15;1.52;;;16.00;41.00;;;;;;5032799;28;20202;-52
2023/03/31 01:01:54;;;;;;;4.25;1.30;;;15.80;41.30;;;;;;5032754;28;20614;-51
2023/03/31 01:04:22;;;;;;;4.97;1.48;;;15.80;41.30;;;;;;5032904;28;20174;-51
2023/03/31 01:07:01;;;;;;;2.58;1.10;;;15.90;41.40;;;;;;5032945;28;20572;-52
2023/03/31 01:09:33;;;;;;;2.53;1.10;;;15.90;41.30;;;;;;5032825;28;20209;-51
2023/03/31 01:12:01;;;;;;;2.83;1.40;;;15.90;41.30;;;;;;5032770;28;20576;-53
2023/03/31 01:14:27;;;;;;;5.53;1.92;;;15.90;41.90;;;;;;5032622;28;20209;-53
2023/03/31 01:16:53;;;;;;;4.35;1.80;;;16.00;41.00;;;;;;5032726;28;20173;-53
2023/03/31 01:20:10;;;;;;;4.03;1.63;;;16.00;40.90;;;;;;5032821;28;20198;-53
2023/03/31 01:22:59;;;;;;;4.97;2.17;;;16.00;40.90;;;;;;5032286;28;20182;-52
2023/03/31 01:25:41;;;;;;;4.95;1.38;;;16.00;40.90;;;;;;5032230;28;20183;-53
2023/03/31 01:28:13;;;;;;;3.03;1.50;;;16.00;41.00;;;;;;5030714;28;20668;-53
2023/03/31 01:30:54;;;;;;;5.65;2.00;;;15.90;41.00;;;;;;5032416;28;20170;-53
2023/03/31 01:33:28;;;;;;;4.38;1.52;;;15.90;41.00;;;;;;5032360;28;20550;-53
2023/03/31 01:36:21;;;;;;;6.97;1.73;;;16.00;40.90;;;;;;5032417;28;20825;-54
2023/03/31 01:39:06;;;;;;;2.83;1.60;;;15.90;40.90;;;;;;5032483;28;20217;-51
2023/03/31 01:41:44;;;;;;;2.30;1.25;;;15.90;41.00;;;;;;5032295;28;20186;-53
2023/03/31 01:44:31;;;;;;;3.78;1.25;;;15.80;40.90;;;;;;5032508;28;20166;-53
2023/03/31 01:47:04;;;;;;;1.83;1.02;;;15.80;40.90;;;;;;5032246;28;20263;-53
2023/03/31 01:49:38;;;;;;;3.72;1.95;;;15.80;41.00;;;;;;5032017;28;20201;-53
2023/03/31 01:52:42;;;;;;;4.53;1.17;;;15.70;41.20;;;;;;5031956;28;20170;-53
2023/03/31 01:55:34;;;;;;;2.72;1.48;;;15.80;41.00;;;;;;5032243;28;20177;-53
2023/03/31 01:58:07;;;;;;;3.92;1.65;;;15.70;41.10;;;;;;5032019;28;20219;-53
2023/03/31 02:00:50;;;;;;;5.80;1.90;;;15.70;41.20;;;;;;5032383;28;20174;-53
2023/03/31 02:03:24;;;;;;;5.68;1.95;;;15.70;41.40;;;;;;5031859;28;20656;-53
2023/03/31 02:05:56;;;;;;;9.80;2.20;;;15.70;41.30;;;;;;5032103;28;20169;-53
2023/03/31 02:08:48;;;;;;;3.30;1.70;;;15.70;41.10;;;;;;5032092;28;20205;-53
2023/03/31 02:11:15;;;;;;;4.72;1.85;;;15.70;41.10;;;;;;5032134;28;20245;-53
2023/03/31 02:13:43;;;;;;;5.93;1.30;;;15.70;41.00;;;;;;5031850;28;20197;-53
2023/03/31 02:16:23;;;;;;;7.28;1.77;;;15.70;41.00;;;;;;5031921;28;20170;-53
2023/03/31 02:18:51;;;;;;;6.53;2.10;;;15.70;41.00;;;;;;5032041;28;20197;-53
2023/03/31 02:21:18;;;;;;;6.30;2.45;;;15.70;41.00;;;;;;5032125;28;20178;-53
2023/03/31 02:23:45;;;;;;;4.25;1.40;;;15.60;41.00;;;;;;5031637;28;20185;-52
2023/03/31 02:26:16;;;;;;;2.70;1.45;;;15.70;41.00;;;;;;5032096;28;20186;-53
2023/03/31 02:28:42;;;;;;;6.00;2.15;;;15.70;40.90;;;;;;5031647;28;20600;-52
2023/03/31 02:31:22;;;;;;;4.30;2.33;;;15.70;40.80;;;;;;5031740;28;20305;-52
2023/03/31 02:33:48;;;;;;;3.97;1.77;;;15.60;40.70;;;;;;5031489;28;20190;-52
2023/03/31 02:36:15;;;;;;;4.75;2.13;;;15.60;40.70;;;;;;5031953;28;20185;-53
2023/03/31 02:39:10;;;;;;;3.97;1.73;;;15.50;40.70;;;;;;5034456;28;20569;-53
2023/03/31 02:41:37;;;;;;;6.43;2.33;;;15.50;40.60;;;;;;5034986;28;20280;-50
2023/03/31 02:44:03;;;;;;;3.40;1.40;;;15.40;40.50;;;;;;5035378;28;20182;-52
2023/03/31 02:46:30;;;;;;;3.78;1.85;;;15.40;40.60;;;;;;5035545;28;20629;-52
2023/03/31 02:49:00;;;;;;;7.22;2.08;;;15.40;40.60;;;;;;5035366;28;20669;-53
2023/03/31 02:51:34;;;;;;;4.28;1.63;;;15.30;40.60;;;;;;5035493;28;20182;-53
2023/03/31 02:54:20;;;;;;;6.45;1.83;;;15.30;40.60;;;;;;5035108;28;20849;-53
2023/03/31 02:56:51;;;;;;;6.93;1.90;;;15.20;40.50;;;;;;5035693;28;20641;-53
2023/03/31 02:59:35;;;;;;;4.30;1.80;;;15.10;40.60;;;;;;5035106;28;20218;-52
2023/03/31 03:02:35;;;;;;;4.78;1.70;;;15.00;40.70;;;;;;5035038;28;20181;-52
2023/03/31 03:05:33;;;;;;;2.53;2.03;;;14.90;40.80;;;;;;5035135;28;20162;-53
2023/03/31 03:08:18;;;;;;;4.03;2.05;;;14.80;41.00;;;;;;5035009;28;20605;-52
2023/03/31 03:11:09;;;;;;;7.45;2.00;;;14.80;41.60;;;;;;5034932;28;20197;-52
2023/03/31 03:13:41;;;;;;;3.88;1.88;;;14.80;41.70;;;;;;5034647;28;20708;-52
2023/03/31 03:16:17;;;;;;;7.40;2.55;;;14.80;41.90;;;;;;5034992;28;20174;-53
2023/03/31 03:18:51;;;;;;;11.23;2.08;;;14.80;42.10;;;;;;5034818;28;20198;-52
2023/03/31 03:21:17;;;;;;;4.00;1.85;;;14.80;42.30;;;;;;5034888;28;20147;-53
2023/03/31 03:23:42;;;;;;;2.42;1.65;;;14.80;42.50;;;;;;5034911;28;20312;-53
2023/03/31 03:26:08;;;;;;;5.23;2.00;;;14.80;42.10;;;;;;5034749;28;20170;-53
2023/03/31 03:28:34;;;;;;;4.80;2.00;;;14.90;42.10;;;;;;5034515;28;20205;-53
2023/03/31 03:31:00;;;;;;;3.83;2.20;;;15.00;42.00;;;;;;5034747;28;20162;-52
2023/03/31 03:33:26;;;;;;;4.50;1.80;;;15.00;41.90;;;;;;5034582;28;20198;-52
2023/03/31 03:35:51;;;;;;;5.63;2.07;;;15.00;41.70;;;;;;5034483;28;20495;-52
2023/03/31 03:38:17;;;;;;;3.10;1.83;;;15.00;41.80;;;;;;5034402;28;20867;-53
2023/03/31 03:40:43;;;;;;;2.87;1.80;;;15.00;41.80;;;;;;5034550;28;20176;-53
2023/03/31 03:43:09;;;;;;;5.23;2.60;;;15.00;41.70;;;;;;5034273;28;20652;-53
2023/03/31 03:45:34;;;;;;;5.80;1.93;;;15.00;41.80;;;;;;5034418;28;20177;-53
2023/03/31 03:48:00;;;;;;;3.17;1.60;;;15.00;41.90;;;;;;5034293;28;20174;-52
2023/03/31 03:50:26;;;;;;;3.60;2.43;;;15.00;41.90;;;;;;5033148;28;20166;-52
2023/03/31 03:52:51;;;;;;;3.13;1.70;;;15.00;42.00;;;;;;5034010;28;20269;-53
2023/03/31 03:55:17;;;;;;;9.97;2.53;;;15.00;42.00;;;;;;5034251;28;20212;-53
2023/03/31 03:57:43;;;;;;;4.57;1.97;;;15.00;42.10;;;;;;5034149;28;20194;-53
2023/03/31 04:00:12;;;;;;;4.80;2.30;;;15.00;42.10;;;;;;5034037;28;20186;-53
2023/03/31 04:02:38;;;;;;;4.63;2.85;;;15.10;42.30;;;;;;5033811;28;20681;-52
2023/03/31 04:05:04;;;;;;;4.50;2.20;;;15.10;42.30;;;;;;5034083;28;20177;-53
2023/03/31 04:07:30;;;;;;;4.60;2.20;;;15.10;42.20;;;;;;5033988;28;20680;-53
2023/03/31 04:09:56;;;;;;;3.27;2.27;;;15.10;42.20;;;;;;5033964;28;20793;-53
2023/03/31 04:12:21;;;;;;;4.83;1.73;;;15.10;42.20;;;;;;5033565;28;20415;-53
2023/03/31 04:14:47;;;;;;;6.87;2.10;;;15.10;42.10;;;;;;5033873;28;20530;-53
2023/03/31 04:17:14;;;;;;;5.83;1.77;;;15.10;42.10;;;;;;5033838;28;20162;-52
2023/03/31 04:19:41;;;;;;;4.65;1.80;;;15.20;42.10;;;;;;5033600;28;20531;-53
2023/03/31 04:22:10;;;;;;;4.43;2.53;;;15.20;42.10;;;;;;5033531;28;20174;-51
2023/03/31 04:24:37;;;;;;;4.68;2.10;;;15.20;42.10;;;;;;5033615;28;20186;-53
2023/03/31 04:27:06;;;;;;;5.68;3.00;;;15.20;42.10;;;;;;5033644;28;20580;-52
2023/03/31 04:29:32;;;;;;;5.00;2.35;;;15.10;42.10;;;;;;5033502;28;20233;-53
2023/03/31 04:31:58;;;;;;;5.50;2.10;;;15.20;42.00;;;;;;5033286;28;20253;-52
2023/03/31 04:34:33;;;;;;;3.63;2.10;;;15.20;41.90;;;;;;5033399;28;20633;-53
2023/03/31 04:37:01;;;;;;;7.35;2.15;;;15.20;41.80;;;;;;5033431;28;20392;-53
2023/03/31 04:39:29;;;;;;;3.75;2.28;;;15.20;41.80;;;;;;5033221;28;20264;-53
2023/03/31 04:41:56;;;;;;;5.15;2.53;;;15.20;41.70;;;;;;5033182;28;20254;-53
2023/03/31 04:44:23;;;;;;;4.28;2.03;;;15.20;41.80;;;;;;5033193;28;20178;-52
2023/03/31 04:46:48;;;;;;;8.10;2.78;;;15.20;41.90;;;;;;5033267;28;20204;-53
2023/03/31 04:49:14;;;;;;;4.53;2.33;;;15.10;42.00;;;;;;5033083;28;20225;-53
2023/03/31 04:51:40;;;;;;;4.30;2.50;;;15.10;42.10;;;;;;5033162;28;20252;-52
2023/03/31 04:54:06;;;;;;;3.30;2.30;;;15.10;42.10;;;;;;5032962;28;20456;-53
2023/03/31 04:56:31;;;;;;;7.90;3.00;;;15.10;42.00;;;;;;5033006;28;20178;-52
2023/03/31 04:58:57;;;;;;;5.87;1.80;;;15.10;42.10;;;;;;5032867;28;20468;-53
2023/03/31 05:01:23;;;;;;;13.27;2.93;;;15.20;42.10;;;;;;5032926;28;20660;-54
2023/03/31 05:03:48;;;;;;;5.33;3.10;;;15.20;42.00;;;;;;5032702;28;20178;-52
2023/03/31 05:06:15;;;;;;;8.93;2.57;;;15.20;42.10;;;;;;5032849;28;20697;-52
2023/03/31 05:08:41;;;;;;;6.72;2.65;;;15.20;41.90;;;;;;5032982;28;20208;-53
2023/03/31 05:11:07;;;;;;;4.63;2.53;;;15.30;42.00;;;;;;5032771;28;20182;-55
2023/03/31 05:13:32;;;;;;;9.10;2.63;;;15.30;41.80;;;;;;5032401;28;20452;-52
2023/03/31 05:16:05;;;;;;;7.37;2.23;;;15.30;41.80;;;;;;5032740;28;20162;-54
2023/03/31 05:18:31;;;;;;;5.47;2.60;;;15.30;41.80;;;;;;5032589;28;20688;-54
2023/03/31 05:21:06;;;;;;;5.13;2.93;;;15.30;42.00;;;;;;5032609;28;20253;-53
2023/03/31 05:23:32;;;;;;;6.50;3.70;;;15.20;42.00;;;;;;5032340;28;20181;-51
2023/03/31 05:25:58;;;;;;;5.93;3.10;;;15.20;42.10;;;;;;5032702;28;20186;-54
2023/03/31 05:28:23;;;;;;;6.50;3.40;;;15.20;42.00;;;;;;5032245;28;20237;-53
2023/03/31 05:30:49;;;;;;;11.53;3.17;;;15.20;42.10;;;;;;5032493;28;20280;-52
2023/03/31 05:33:15;;;;;;;5.00;2.80;;;15.20;42.10;;;;;;5031958;28;20251;-55
2023/03/31 05:35:41;;;;;;;6.90;2.90;;;15.20;42.10;;;;;;5032354;28;20197;-52
2023/03/31 05:38:06;;;;;;;7.57;2.17;;;15.20;42.10;;;;;;5032324;28;20401;-51
2023/03/31 05:40:32;;;;;;;7.27;3.20;;;15.20;42.10;;;;;;5032293;28;20162;-55
2023/03/31 05:42:58;;;;;;;6.20;2.43;;;15.20;42.10;;;;;;5032014;28;20173;-53
2023/03/31 05:45:24;;;;;;;16.83;2.50;;;15.30;42.20;;;;;;5032276;28;20170;-52
2023/03/31 05:47:50;;;;;;;3.40;2.87;;;15.30;42.10;;;;;;5032166;28;20186;-52
2023/03/31 05:50:16;;;;;;;4.15;2.35;;;15.40;42.00;;;;;;5032337;28;20193;-54
2023/03/31 05:52:41;;;;;;;6.60;2.20;;;15.50;41.90;;;;;;5031865;28;20333;-53
2023/03/31 05:55:08;;;;;;;5.83;1.93;;;15.50;42.00;;;;;;5032091;28;20401;-52
2023/03/31 05:57:33;;;;;;;7.45;2.60;;;15.60;42.10;;;;;;5031936;28;20178;-55
2023/03/31 05:59:59;;;;;;;5.13;2.10;;;15.70;41.90;;;;;;5032405;28;20200;-51
2023/03/31 06:02:25;;;;;;;5.33;2.20;;;15.80;41.70;;;;;;5031747;28;20583;-52
2023/03/31 06:04:51;;;;;;;4.30;2.30;;;15.90;41.80;;;;;;5031942;28;20170;-55
2023/03/31 06:07:17;;;;;;;4.43;2.23;;;15.90;41.60;;;;;;5032003;28;20174;-53
2023/03/31 06:09:42;;;;;;;8.95;2.72;;;16.00;41.50;;;;;;5031878;28;20200;-52
2023/03/31 06:12:08;;;;;;;5.83;2.93;;;16.10;41.30;;;;;;5031921;28;20596;-54
2023/03/31 06:14:34;;;;;;;4.97;3.00;;;16.20;41.30;;;;;;5036143;28;20259;-52
2023/03/31 06:17:00;;;;;;;4.90;2.40;;;16.30;41.30;;;;;;5035944;28;20529;-51
2023/03/31 06:19:26;;;;;;;5.13;2.23;;;16.30;41.10;;;;;;5036167;28;20474;-54
2023/03/31 06:21:51;;;;;;;9.47;1.83;;;16.40;41.00;;;;;;5035740;28;20416;-55
2023/03/31 06:24:17;;;;;;;5.30;2.43;;;16.40;41.00;;;;;;5035847;28;20174;-53
2023/03/31 06:26:43;;;;;;;7.03;3.67;;;16.40;40.70;;;;;;5036187;28;20568;-55
2023/03/31 06:29:09;;;;;;;3.93;2.00;;;16.40;40.60;;;;;;5035615;28;20708;-54
2023/03/31 06:31:35;;;;;;;6.83;2.23;;;16.40;40.60;;;;;;5035675;28;20249;-52
2023/03/31 06:34:00;;;;;;;4.90;2.30;;;16.40;40.90;;;;;;5035505;28;20190;-54
2023/03/31 06:36:26;;;;;;;5.37;2.40;;;16.50;40.70;;;;;;5033601;22;20244;-50
2023/03/31 06:38:52;;;;;;;7.33;2.20;;;16.50;40.60;;;;;;5008658;28;20249;-51
2023/03/31 06:41:20;;;;;;;8.68;2.63;;;16.50;40.40;;;;;;5015817;28;20178;-51
2023/03/31 06:43:46;;;;;;;4.53;3.13;;;16.50;40.50;;;;;;5015873;28;20182;-50
2023/03/31 06:46:11;;;;;;;6.50;2.30;;;16.50;40.40;;;;;;5015667;28;20261;-50
2023/03/31 06:48:37;;;;;;;6.00;2.10;;;16.60;40.30;;;;;;5015627;28;20409;-49
2023/03/31 06:51:05;;;;;;;3.90;1.83;;;16.70;40.50;;;;;;5015934;28;20460;-49
2023/03/31 06:53:31;;;;;;;8.48;2.55;;;16.80;40.30;;;;;;5015182;28;20202;-50
2023/03/31 06:55:57;;;;;;;8.35;2.20;;;16.80;40.40;;;;;;5015531;28;20186;-49
2023/03/31 06:58:23;;;;;;;6.28;2.25;;;16.90;40.20;;;;;;5015707;28;20174;-50
2023/03/31 07:00:49;;;;;;;3.13;2.10;;;17.00;39.80;;;;;;5015511;28;20173;-50
2023/03/31 07:03:21;;;;;;;3.63;1.90;;;17.20;40.30;;;;;;5015305;28;20198;-50
2023/03/31 07:05:53;;;;;;;6.97;2.50;;;17.30;39.90;;;;;;5015295;28;20536;-49
2023/03/31 07:08:20;;;;;;;3.70;1.92;;;17.40;39.70;;;;;;5015152;28;20609;-50
2023/03/31 07:10:47;;;;;;;3.67;2.38;;;17.50;39.00;;;;;;5015537;28;20178;-50
2023/03/31 07:13:17;;;;;;;3.15;1.33;;;17.50;38.70;;;;;;5014933;28;20221;-50
2023/03/31 07:15:43;;;;;;;12.02;2.90;;;17.60;38.40;;;;;;5015078;28;20195;-50
2023/03/31 07:18:09;;;;;;;3.33;1.73;;;17.50;38.30;;;;;;5015105;28;20517;-50
2023/03/31 07:20:35;;;;;;;8.23;2.93;;;17.50;38.40;;;;;;5015064;28;20167;-50
2023/03/31 07:23:04;;;;;;;7.77;2.73;;;17.60;38.90;;;;;;5015053;28;20986;-50
2023/03/31 07:25:29;;;;;;;6.72;2.20;;;17.60;38.60;;;;;;5015031;28;20225;-50
2023/03/31 07:27:55;;;;;;;6.53;2.30;;;17.60;38.30;;;;;;5015030;28;20646;-50
2023/03/31 07:30:21;;;;;;;2.90;1.90;;;17.60;38.30;;;;;;5014992;28;20206;-49
2023/03/31 07:32:49;;;;;;;3.97;1.88;;;17.60;37.70;;;;;;5014647;28;20277;-50
2023/03/31 07:35:16;;;;;;;3.35;2.00;;;17.70;38.10;;;;;;5014780;28;20210;-48
2023/03/31 07:37:44;;;;;;;5.03;1.50;;;17.70;37.90;;;;;;5014767;28;20634;-49
2023/03/31 07:40:17;;;;;;;4.80;3.22;;;17.60;37.60;;;;;;5015042;28;20557;-50
2023/03/31 07:42:45;;;;;;;2.55;1.70;;;17.80;38.00;;;;;;5014584;28;20163;-49
2023/03/31 07:45:12;;;;;;;4.30;1.60;;;17.80;37.50;;;;;;5014562;28;20209;-50
2023/03/31 07:47:38;;;;;;;3.70;1.80;;;17.90;37.60;;;;;;5013304;28;20257;-51
2023/03/31 07:50:05;;;;;;;4.47;2.15;;;18.00;37.30;;;;;;5014715;28;20264;-50
2023/03/31 07:52:33;;;;;;;5.20;2.00;;;18.20;37.50;;;;;;5014329;28;20178;-50
2023/03/31 07:54:59;;;;;;;4.75;1.95;;;18.30;37.20;;;;;;5014387;28;20673;-50
2023/03/31 07:57:24;;;;;;;4.93;2.10;;;18.50;36.00;;;;;;5014638;28;20185;-50
2023/03/31 07:59:50;;;;;;;5.50;2.33;;;18.60;35.70;;;;;;5014239;28;20413;-50
2023/03/31 08:02:17;;;;;;;7.50;2.53;;;18.60;36.20;;;;;;5014045;28;20642;-50
2023/03/31 08:04:43;;;;;;;4.75;2.00;;;18.70;36.60;;;;;;5014244;28;20257;-49
2023/03/31 08:07:11;;;;;;;5.80;2.88;;;18.80;35.70;;;;;;5014493;28;20531;-50
2023/03/31 08:09:41;;;;;;;5.25;2.17;;;18.80;35.80;;;;;;5014282;28;20542;-49
2023/03/31 08:12:07;;;;;;;8.30;2.92;;;18.70;35.10;;;;;;5013989;28;20185;-49
2023/03/31 08:14:33;;;;;;;4.33;1.67;;;18.50;35.90;;;;;;5013953;28;20281;-49
2023/03/31 08:16:59;;;;;;;4.50;2.03;;;18.60;36.20;;;;;;5013881;28;20448;-50
2023/03/31 08:19:25;;;;;;;4.03;1.53;;;18.50;36.20;;;;;;5014143;28;20210;-50
2023/03/31 08:21:51;;;;;;;4.55;2.42;;;18.50;35.90;;;;;;5013966;28;20534;-50
2023/03/31 08:24:18;;;;;;;3.90;2.53;;;18.40;36.40;;;;;;5013860;28;20189;-50
2023/03/31 08:26:44;;;;;;;10.30;2.67;;;18.40;36.20;;;;;;5013816;28;20441;-50
2023/03/31 08:29:10;;;;;;;9.23;3.03;;;18.50;36.00;;;;;;5014042;28;20178;-50
2023/03/31 08:31:36;;;;;;;9.07;2.78;;;18.60;35.40;;;;;;5013672;28;20554;-50
2023/03/31 08:34:03;;;;;;;5.93;2.43;;;18.50;35.50;;;;;;5013545;28;20209;-49
2023/03/31 08:36:29;;;;;;;8.55;2.90;;;18.40;35.90;;;;;;5013007;28;20294;-50
2023/03/31 08:38:55;;;;;;;5.93;2.10;;;18.50;36.20;;;;;;5013730;28;20187;-49
2023/03/31 08:41:42;;;;;;;9.83;2.97;;;18.50;35.90;;;;;;5013839;28;20657;-50
2023/03/31 08:44:33;;;;;;;4.10;2.08;;;18.50;36.00;;;;;;5013343;28;20401;-49
2023/03/31 08:47:01;;;;;;;8.00;3.08;;;18.40;35.70;;;;;;5013389;28;20551;-49
2023/03/31 08:49:32;;;;;;;5.28;2.15;;;18.40;36.00;;;;;;5013420;28;20171;-49
2023/03/31 08:52:04;;;;;;;6.22;2.03;;;18.40;36.20;;;;;;5013497;28;20194;-49
2023/03/31 08:55:03;;;;;;;6.30;1.70;;;18.40;35.70;;;;;;5013302;28;20274;-49
2023/03/31 08:58:10;;;;;;;6.65;2.00;;;18.30;35.90;;;;;;4980419;28;20183;-49
2023/03/31 09:01:15;;;;;;;4.85;2.25;;;18.10;36.40;;;;;;4952491;29;20172;-49
2023/03/31 09:04:18;;;;;;;5.05;2.10;;;18.10;36.50;;;;;;5013176;28;20265;-49
2023/03/31 09:07:01;;;;;;;6.75;2.10;;;18.10;36.80;;;;;;5013035;28;20248;-49
2023/03/31 09:09:53;;;;;;;6.70;2.83;;;18.00;37.10;;;;;;5013051;28;20254;-50
2023/03/31 09:12:24;;;;;;;7.60;2.78;;;17.80;38.40;;;;;;5002241;28;20269;-49
2023/03/31 09:15:00;;;;;;;3.58;2.22;;;17.80;39.50;;;;;;5013163;28;20202;-50
2023/03/31 09:17:32;;;;;;;8.07;2.47;;;17.50;39.00;;;;;;5012962;28;20694;-49
2023/03/31 09:20:12;;;;;;;3.78;1.52;;;17.30;39.40;;;;;;5012898;28;20634;-50
2023/03/31 09:22:43;;;;;;;3.95;2.25;;;17.40;39.20;;;;;;5012735;28;20179;-50
2023/03/31 09:25:22;;;;;;;6.20;1.92;;;17.40;38.00;;;;;;5012707;28;20244;-50
2023/03/31 09:27:51;;;;;;;5.18;1.55;;;17.40;38.90;;;;;;5012996;28;20523;-49
2023/03/31 09:30:28;;;;;;;5.15;2.00;;;17.30;38.70;;;;;;5012910;28;20181;-49
2023/03/31 09:33:10;;;;;;;12.90;2.05;;;17.30;39.00;;;;;;5012525;28;20182;-49
2023/03/31 09:35:36;;;;;;;3.00;1.40;;;17.30;38.20;;;;;;5012549;28;20237;-49
2023/03/31 09:38:02;;;;;;;7.00;1.50;;;17.20;38.50;;;;;;5012523;28;20529;-50
2023/03/31 09:40:28;;;;;;;7.93;1.90;;;17.20;38.50;;;;;;5012742;28;20409;-50
2023/03/31 09:43:04;;;;;;;3.25;1.08;;;17.20;38.80;;;;;;5012286;28;20167;-49
2023/03/31 09:45:32;;;;;;;6.43;1.88;;;17.40;39.00;;;;;;5012740;28;20220;-49
2023/03/31 09:48:02;;;;;;;5.80;1.50;;;17.50;38.80;;;;;;5011670;28;20182;-49
2023/03/31 09:50:30;;;;;;;1.95;1.40;;;17.50;38.30;;;;;;5012332;28;20193;-49
2023/03/31 09:52:58;;;;;;;3.35;1.75;;;17.40;38.20;;;;;;5012117;28;20201;-49
2023/03/31 09:55:26;;;;;;;2.63;1.98;;;17.60;38.60;;;;;;5012227;28;20193;-49
2023/03/31 09:57:52;;;;;;;5.70;1.80;;;17.60;38.60;;;;;;5012312;28;20183;-49
2023/03/31 10:00:21;;;;;;;5.45;1.83;;;17.60;38.10;;;;;;5012411;28;20531;-50
2023/03/31 10:02:49;;;;;;;2.30;1.48;;;17.70;38.60;;;;;;5012095;28;20178;-51
2023/03/31 10:05:47;;;;;;;6.95;1.52;;;17.60;38.60;;;;;;5012133;28;20198;-50
2023/03/31 10:08:15;;;;;;;6.43;1.88;;;17.60;37.80;;;;;;5012256;28;20178;-50
2023/03/31 10:11:10;;;;;;;5.60;2.03;;;17.50;38.50;;;;;;5012204;28;20221;-50
2023/03/31 10:13:44;;;;;;;2.58;1.65;;;17.40;38.40;;;;;;5009929;28;20206;-50
2023/03/31 10:16:26;;;;;;;5.72;1.50;;;17.50;39.20;;;;;;5012224;28;20662;-51
2023/03/31 10:18:52;;;;;;;4.63;1.20;;;17.60;38.30;;;;;;5012068;28;20646;-50
2023/03/31 10:21:25;;;;;;;2.53;1.90;;;17.50;38.00;;;;;;5012400;28;20273;-49
2023/03/31 10:23:52;;;;;;;4.47;1.75;;;17.50;37.80;;;;;;5011921;28;20206;-50
2023/03/31 10:26:38;;;;;;;3.22;1.50;;;17.20;37.30;;;;;;5011960;28;20233;-50
2023/03/31 10:29:24;;;;;;;5.32;2.60;;;17.20;37.60;;;;;;5012186;28;20186;-50
2023/03/31 10:31:50;;;;;;;2.88;1.50;;;17.20;37.70;;;;;;5011992;28;20178;-51
2023/03/31 10:34:17;;;;;;;5.00;1.70;;;17.10;37.90;;;;;;5011871;28;20566;-49
2023/03/31 10:36:49;;;;;;;2.55;1.42;;;17.00;38.10;;;;;;5011907;28;20210;-49
2023/03/31 10:39:16;;;;;;;4.90;1.55;;;16.90;38.50;;;;;;5011880;28;20665;-49
2023/03/31 10:41:43;;;;;;;2.65;1.42;;;16.80;38.10;;;;;;5012052;28;20597;-50
2023/03/31 10:44:30;;;;;;;4.22;1.67;;;16.90;38.30;;;;;;5011906;28;20232;-49
2023/03/31 10:47:15;;;;;;;2.30;1.52;;;17.10;38.30;;;;;;5011809;28;20214;-52
2023/03/31 10:49:42;;;;;;;3.45;1.35;;;17.00;37.50;;;;;;5012046;28;20201;-49
2023/03/31 10:52:16;;;;;;;3.25;2.00;;;17.00;37.90;;;;;;5011991;28;20573;-51
2023/03/31 10:54:51;;;;;;;3.40;2.00;;;17.10;37.50;;;;;;5011928;28;20214;-50
2023/03/31 10:57:20;;;;;;;4.80;1.90;;;17.10;38.20;;;;;;5011696;28;20163;-50
2023/03/31 11:00:19;;;;;;;3.17;2.00;;;17.10;38.20;;;;;;5014444;28;20213;-51
2023/03/31 11:02:49;;;;;;;5.93;2.28;;;17.00;38.50;;;;;;5015331;28;20170;-50
2023/03/31 11:05:32;;;;;;;3.67;2.03;;;16.90;39.00;;;;;;5015245;28;20199;-51
2023/03/31 11:08:13;;;;;;;2.90;2.30;;;17.00;39.50;;;;;;5015423;28;20518;-49
2023/03/31 11:10:45;;;;;;;2.17;1.40;;;17.00;39.50;;;;;;5015619;28;20170;-49
2023/03/31 11:13:39;;;;;;;3.72;1.70;;;17.00;39.20;;;;;;5015026;28;20193;-49
2023/03/31 11:16:10;;;;;;;3.28;2.05;;;17.10;39.40;;;;;;4993330;28;20558;-50
2023/03/31 11:19:03;;;;;;;2.55;2.30;;;17.10;39.40;;;;;;5015161;28;20169;-49
2023/03/31 11:21:47;;;;;;;4.03;2.45;;;17.20;39.50;;;;;;5015140;28;20201;-50
2023/03/31 11:24:45;;;;;;;3.72;1.80;;;17.10;39.50;;;;;;5014823;28;20178;-50
2023/03/31 11:27:49;;;;;;;3.50;2.22;;;17.20;40.10;;;;;;4989103;28;20209;-51
2023/03/31 11:30:47;;;;;;;3.22;2.22;;;17.10;39.90;;;;;;5014927;28;20178;-50
2023/03/31 11:33:37;;;;;;;2.50;2.00;;;17.20;40.40;;;;;;5014782;28;20213;-49
2023/03/31 11:36:27;;;;;;;2.72;1.80;;;17.10;41.00;;;;;;5014799;28;20222;-49
2023/03/31 11:39:35;;;;;;;8.18;3.35;;;17.00;41.30;;;;;;5014936;28;20238;-49
2023/03/31 11:42:30;;;;;;;3.40;1.92;;;16.90;42.00;;;;;;5006404;28;20206;-50
2023/03/31 11:45:03;;;;;;;5.07;2.40;;;16.70;42.80;;;;;;4991395;28;20210;-51
2023/03/31 11:47:32;;;;;;;3.40;2.63;;;16.70;43.10;;;;;;5014584;28;20269;-49
2023/03/31 11:50:03;;;;;;;7.50;2.70;;;16.60;43.90;;;;;;5014480;28;20165;-50
2023/03/31 11:52:36;;;;;;;5.55;3.05;;;16.50;44.10;;;;;;5014374;28;20155;-49
2023/03/31 11:55:15;;;;;;;5.00;2.80;;;16.50;44.00;;;;;;5014495;28;20222;-50
2023/03/31 11:57:49;;;;;;;5.72;3.45;;;16.60;44.00;;;;;;5014434;28;20243;-50
2023/03/31 12:00:18;;;;;;;3.60;2.65;;;16.60;44.10;;;;;;5014412;28;20194;-49
2023/03/31 12:03:06;;;;;;;4.50;3.00;;;16.60;44.40;;;;;;5014214;28;20185;-49
2023/03/31 12:05:35;;;;;;;4.38;3.10;;;16.70;44.50;;;;;;5014092;28;20215;-50
2023/03/31 12:08:07;;;;;;;4.45;3.10;;;16.60;44.40;;;;;;5014131;28;20174;-49
2023/03/31 12:10:41;;;;;;;6.18;3.78;;;16.50;44.90;;;;;;5013613;28;20550;-50
2023/03/31 12:13:39;;;;;;;3.30;2.35;;;16.50;45.30;;;;;;5013945;28;20190;-49
2023/03/31 12:16:20;;;;;;;4.00;3.08;;;16.40;44.80;;;;;;5014203;28;20191;-49
2023/03/31 12:19:07;;;;;;;5.57;3.25;;;16.30;45.30;;;;;;5014114;28;20241;-49
2023/03/31 12:21:36;;;;;;;3.10;2.70;;;16.20;45.50;;;;;;5014150;28;20178;-50
2023/03/31 12:24:02;;;;;;;4.63;3.72;;;16.10;45.80;;;;;;5013914;28;20237;-49
2023/03/31 12:26:41;;;;;;;5.10;3.97;;;16.10;46.30;;;;;;5014099;28;20206;-49
2023/03/31 12:29:26;;;;;;;4.13;3.65;;;16.20;45.80;;;;;;5014060;28;20170;-50
2023/03/31 12:31:56;;;;;;;5.80;4.50;;;16.20;46.70;;;;;;5013620;28;20167;-49
2023/03/31 12:34:25;;;;;;;4.20;3.17;;;16.30;46.30;;;;;;5013803;28;20535;-49
2023/03/31 12:37:09;;;;;;;4.50;3.78;;;16.40;46.00;;;;;;5013512;28;20783;-50
2023/03/31 12:39:56;;;;;;;6.63;3.42;;;16.50;45.60;;;;;;5013961;28;20607;-50
2023/03/31 12:42:46;;;;;;;4.95;3.25;;;16.40;45.60;;;;;;5013423;28;20661;-49
2023/03/31 12:45:15;;;;;;;2.42;2.20;;;16.40;45.70;;;;;;5013532;28;20268;-49
2023/03/31 12:47:59;;;;;;;5.38;3.00;;;16.40;45.80;;;;;;5013376;28;20542;-50
2023/03/31 12:50:54;;;;;;;2.80;2.50;;;16.40;46.00;;;;;;5013401;28;20622;-50
2023/03/31 12:53:34;;;;;;;4.43;2.75;;;16.50;46.00;;;;;;4987307;28;20245;-49
2023/03/31 12:56:00;;;;;;;2.97;2.67;;;16.50;46.20;;;;;;5013283;28;20189;-49
2023/03/31 12:58:27;;;;;;;3.57;3.27;;;16.50;46.00;;;;;;5013540;28;20175;-50
2023/03/31 13:01:13;;;;;;;6.97;2.60;;;16.50;46.20;;;;;;5013365;28;20225;-50
2023/03/31 13:03:51;;;;;;;5.65;2.80;;;16.50;46.20;;;;;;5013329;28;20220;-49
2023/03/31 13:06:28;;;;;;;4.60;3.63;;;16.50;46.20;;;;;;5013026;28;20194;-50
2023/03/31 13:09:04;;;;;;;4.43;3.70;;;16.50;46.20;;;;;;5012988;28;20721;-50
2023/03/31 13:11:36;;;;;;;3.22;2.80;;;16.50;46.20;;;;;;5013487;28;20262;-49
2023/03/31 13:14:26;;;;;;;4.53;3.75;;;16.50;46.40;;;;;;5013059;28;20260;-51